Terminal Aerodrome Forecast
Issued by NWS Twin Cities, MN

Home | Current Version | Previous Version | Text Only | Print | Product List | Glossary Off
Versions: 1 2 3 4 5 6 7 8 9 10 11 12 13 14 15 16 17

000
FTUS43 KMPX 150342 AAA
TAFEAU
TAF AMD
KEAU 150342Z 1504/1524 03003KT 4SM BR BKN005
     FM150900 00000KT 1/4SM FG VV002
     FM151300 05003KT 3SM BR SCT005
     FM151500 06005KT P6SM SCT040=

USA.gov is the U.S. government's official web portal to all federal, state and local government web resources and services.